createdAt,value
2018-04-23T00:00:15.216Z,4.00
2018-04-23T00:02:48.781Z,4.00
2018-04-23T00:03:48.948Z,4.00
2018-04-23T00:04:49.119Z,4.00
2018-04-23T00:05:49.284Z,4.00
2018-04-23T00:06:49.457Z,4.00
2018-04-23T00:07:49.622Z,4.00
2018-04-23T00:08:49.788Z,4.00
2018-04-23T00:09:49.959Z,4.00
2018-04-23T00:10:50.123Z,4.00
2018-04-23T00:11:50.288Z,4.00
2018-04-23T00:12:50.455Z,4.00
2018-04-23T00:13:52.525Z,4.00
2018-04-23T00:14:50.812Z,4.00
2018-04-23T00:15:50.979Z,4.00
2018-04-23T00:16:51.145Z,4.00
2018-04-23T00:19:33.715Z,4.00
2018-04-23T00:20:33.886Z,4.00
2018-04-23T00:21:34.053Z,4.00
2018-04-23T00:22:34.223Z,4.00
2018-04-23T00:23:34.374Z,4.00
2018-04-23T00:24:34.540Z,4.00
2018-04-23T00:25:34.707Z,4.00
2018-04-23T00:26:34.877Z,4.00
2018-04-23T00:27:35.042Z,4.00
2018-04-23T00:28:35.209Z,4.00
2018-04-23T00:29:35.374Z,4.00
2018-04-23T00:30:35.545Z,4.00
2018-04-23T00:31:35.709Z,4.00
2018-04-23T00:32:35.878Z,4.00
2018-04-23T00:33:36.043Z,4.00
2018-04-23T00:36:08.609Z,4.00
2018-04-23T00:37:08.776Z,4.00
2018-04-23T00:38:08.940Z,4.00
2018-04-23T00:39:09.106Z,4.00
2018-04-23T00:40:09.272Z,4.00
2018-04-23T00:41:09.439Z,4.00
2018-04-23T00:42:09.606Z,4.00
2018-04-23T00:43:09.772Z,4.00
2018-04-23T00:44:09.938Z,4.00
2018-04-23T00:45:10.105Z,4.00
2018-04-23T00:46:10.271Z,4.00
2018-04-23T00:47:10.440Z,4.00
2018-04-23T00:48:10.603Z,4.00
2018-04-23T00:49:10.769Z,4.00
2018-04-23T00:50:10.936Z,4.00
2018-04-23T00:52:53.504Z,4.00
2018-04-23T00:53:53.673Z,4.00
2018-04-23T00:54:53.841Z,4.00
2018-04-23T00:55:54.009Z,4.00
2018-04-23T00:56:54.175Z,4.00
2018-04-23T00:57:54.343Z,4.00
2018-04-23T00:58:54.508Z,4.00
2018-04-23T00:59:54.674Z,4.00
2018-04-23T01:00:54.841Z,4.00
2018-04-23T01:01:55.006Z,4.00
2018-04-23T01:02:55.175Z,4.00
2018-04-23T01:03:55.343Z,4.00
2018-04-23T01:04:55.515Z,4.00
2018-04-23T01:05:56.245Z,4.00
2018-04-23T01:06:55.781Z,4.00
2018-04-23T01:09:28.335Z,4.00
2018-04-23T01:10:28.516Z,4.00
2018-04-23T01:11:28.680Z,4.00
2018-04-23T01:12:30.563Z,4.00
2018-04-23T01:13:28.984Z,4.00
2018-04-23T01:14:29.151Z,4.00
2018-04-23T01:15:29.319Z,4.00
2018-04-23T01:16:29.486Z,4.00
2018-04-23T01:17:29.653Z,4.00
2018-04-23T01:18:29.820Z,4.00
2018-04-23T01:21:02.101Z,4.00
2018-04-23T01:22:02.268Z,4.00
2018-04-23T01:23:02.431Z,4.00
2018-04-23T01:24:02.598Z,4.00
2018-04-23T01:25:03.624Z,4.00
2018-04-23T01:26:02.923Z,4.00
2018-04-23T01:27:03.083Z,4.00
2018-04-23T01:28:03.244Z,4.00
2018-04-23T01:29:03.411Z,4.00
2018-04-23T01:30:03.577Z,4.00
2018-04-23T01:31:03.741Z,4.00
2018-04-23T01:32:03.908Z,4.00
2018-04-23T01:33:04.074Z,4.00
2018-04-23T01:34:04.247Z,4.00
2018-04-23T01:35:04.410Z,4.00
2018-04-23T01:37:36.682Z,4.00
2018-04-23T01:38:36.854Z,4.00
2018-04-23T01:39:37.019Z,4.00
2018-04-23T01:40:37.186Z,4.00
2018-04-23T01:41:37.357Z,4.00
2018-04-23T01:42:38.212Z,4.00
2018-04-23T01:43:37.628Z,4.00
2018-04-23T01:44:37.796Z,4.00
2018-04-23T01:45:37.962Z,4.00
2018-04-23T01:46:38.127Z,4.00
2018-04-23T01:47:38.293Z,4.00
2018-04-23T01:48:38.459Z,4.00
2018-04-23T01:49:38.626Z,4.00
2018-04-23T01:50:38.798Z,4.00
2018-04-23T01:51:38.962Z,4.00
2018-04-23T01:55:29.838Z,4.00
2018-04-23T01:56:29.632Z,4.00
2018-04-23T01:57:29.801Z,4.00
2018-04-23T01:58:29.967Z,4.00
2018-04-23T01:59:30.131Z,4.00
2018-04-23T02:00:30.294Z,4.00
2018-04-23T02:01:30.463Z,4.00
2018-04-23T02:02:30.632Z,4.00
2018-04-23T02:03:30.796Z,4.00
2018-04-23T02:04:30.960Z,4.00
2018-04-23T02:07:13.229Z,4.00
2018-04-23T02:08:13.397Z,4.00
2018-04-23T02:09:13.564Z,4.00
2018-04-23T02:10:13.730Z,4.00
2018-04-23T02:11:15.765Z,4.00
2018-04-23T02:12:14.058Z,4.00
2018-04-23T02:13:14.223Z,4.00
2018-04-23T02:14:14.629Z,4.00
2018-04-23T02:15:14.605Z,4.00
2018-04-23T02:16:14.774Z,4.00
2018-04-23T02:17:14.940Z,4.00
2018-04-23T02:18:15.106Z,4.00
2018-04-23T02:19:15.269Z,4.00
2018-04-23T02:20:15.445Z,4.00
2018-04-23T02:21:15.603Z,4.00
2018-04-23T02:23:48.173Z,4.00
2018-04-23T02:24:48.339Z,4.00
2018-04-23T02:25:48.508Z,4.00
2018-04-23T02:26:48.674Z,4.00
2018-04-23T02:27:48.844Z,4.00
2018-04-23T02:28:49.008Z,4.00
2018-04-23T02:29:49.175Z,4.00
2018-04-23T02:30:49.341Z,4.00
2018-04-23T02:31:49.509Z,4.00
2018-04-23T02:32:50.411Z,4.00
2018-04-23T02:33:49.825Z,4.00
2018-04-23T02:34:50.015Z,4.00
2018-04-23T02:35:50.348Z,4.00
2018-04-23T02:36:50.575Z,4.00
2018-04-23T02:37:50.529Z,4.00
2018-04-23T02:40:33.123Z,4.00
2018-04-23T02:41:33.577Z,4.00
2018-04-23T02:42:33.451Z,4.00
2018-04-23T02:43:33.619Z,4.00
2018-04-23T02:44:33.784Z,4.00
2018-04-23T02:45:33.952Z,4.00
2018-04-23T02:46:34.126Z,4.00
2018-04-23T02:47:34.282Z,4.00
2018-04-23T02:48:34.457Z,4.00
2018-04-23T02:49:34.623Z,4.00
2018-04-23T02:50:34.872Z,4.00
2018-04-23T02:51:34.907Z,4.00
2018-04-23T02:52:35.077Z,4.00
2018-04-23T02:53:35.244Z,4.00
2018-04-23T02:54:35.408Z,4.00
2018-04-23T02:57:17.999Z,4.00
2018-04-23T02:58:18.154Z,4.00
2018-04-23T02:59:18.375Z,4.00
2018-04-23T03:00:18.554Z,4.00
2018-04-23T03:01:18.613Z,4.00
2018-04-23T03:02:18.773Z,4.00
2018-04-23T03:03:18.945Z,4.00
2018-04-23T03:04:19.115Z,4.00
2018-04-23T03:05:19.283Z,4.00
2018-04-23T03:06:19.447Z,4.00
2018-04-23T03:07:19.613Z,4.00
2018-04-23T03:08:19.779Z,4.00
2018-04-23T03:09:19.947Z,4.00
2018-04-23T03:10:20.112Z,4.00
2018-04-23T03:11:20.280Z,4.00
2018-04-23T03:13:52.564Z,4.00
2018-04-23T03:14:52.729Z,4.00
2018-04-23T03:15:52.895Z,4.00
2018-04-23T03:16:53.058Z,4.00
2018-04-23T03:17:53.229Z,4.00
2018-04-23T03:18:53.395Z,4.00
2018-04-23T03:19:53.562Z,4.00
2018-04-23T03:20:53.728Z,4.00
2018-04-23T03:21:53.894Z,4.00
2018-04-23T03:22:54.058Z,4.00
2018-04-23T03:23:54.229Z,4.00
2018-04-23T03:24:54.393Z,4.00
2018-04-23T03:25:54.558Z,4.00
2018-04-23T03:26:54.724Z,4.00
2018-04-23T03:27:54.888Z,4.00
2018-04-23T03:30:37.449Z,4.00
2018-04-23T03:31:37.617Z,4.00
2018-04-23T03:32:37.784Z,4.00
2018-04-23T03:33:37.949Z,4.00
2018-04-23T03:34:38.114Z,4.00
2018-04-23T03:35:38.284Z,4.00
2018-04-23T03:36:38.445Z,4.00
2018-04-23T03:37:38.614Z,4.00
2018-04-23T03:38:38.780Z,4.00
2018-04-23T03:39:38.948Z,4.00
2018-04-23T03:42:21.222Z,4.00
2018-04-23T03:43:21.386Z,4.00
2018-04-23T03:44:21.564Z,4.00
2018-04-23T03:45:21.719Z,4.00
2018-04-23T03:46:21.884Z,4.00
2018-04-23T03:47:22.052Z,4.00
2018-04-23T03:48:22.222Z,4.00
2018-04-23T03:49:22.394Z,4.00
2018-04-23T03:50:22.557Z,4.00
2018-04-23T03:51:22.723Z,4.00
2018-04-23T03:52:22.890Z,4.00
2018-04-23T03:53:23.059Z,4.00
2018-04-23T03:54:23.227Z,4.00
2018-04-23T03:55:23.397Z,4.00
2018-04-23T03:56:23.564Z,4.00
2018-04-23T03:59:05.830Z,4.00
2018-04-23T04:00:06.005Z,8.00
2018-04-23T04:01:06.166Z,8.00
2018-04-23T04:02:06.331Z,4.00
2018-04-23T04:03:06.497Z,4.00
2018-04-23T04:04:06.664Z,4.00
2018-04-23T04:05:06.832Z,4.00
2018-04-23T04:06:06.997Z,4.00
2018-04-23T04:07:07.163Z,8.00
2018-04-23T04:08:07.327Z,4.00
2018-04-23T04:09:07.500Z,8.00
2018-04-23T04:10:07.666Z,8.00
2018-04-23T04:11:07.838Z,12.00
2018-04-23T04:12:07.999Z,12.00
2018-04-23T04:13:08.162Z,16.00
2018-04-23T04:15:50.708Z,20.00
2018-04-23T04:16:50.919Z,24.00
2018-04-23T04:17:51.036Z,24.00
2018-04-23T04:18:59.861Z,28.00
2018-04-23T04:19:51.402Z,32.00
2018-04-23T04:20:51.565Z,32.00
2018-04-23T04:21:51.735Z,32.00
2018-04-23T04:22:51.901Z,40.00
2018-04-23T04:23:52.068Z,44.00
2018-04-23T04:24:52.230Z,44.00
2018-04-23T04:25:52.399Z,48.00
2018-04-23T04:26:52.566Z,52.00
2018-04-23T04:27:52.737Z,56.00
2018-04-23T04:28:52.917Z,60.00
2018-04-23T04:29:53.084Z,64.00
2018-04-23T04:30:53.250Z,64.00
2018-04-23T04:31:53.420Z,60.00
2018-04-23T04:32:53.590Z,60.00
2018-04-23T04:33:53.757Z,60.00
2018-04-23T04:36:26.065Z,56.00
2018-04-23T04:37:26.235Z,56.00
2018-04-23T04:38:26.401Z,56.00
2018-04-23T04:39:26.728Z,60.00
2018-04-23T04:40:26.768Z,68.00
2018-04-23T04:41:26.932Z,76.00
2018-04-23T04:42:27.100Z,80.00
2018-04-23T04:43:27.265Z,92.00
2018-04-23T04:44:27.427Z,92.00
2018-04-23T04:45:27.597Z,96.00
2018-04-23T04:46:27.761Z,104.00
2018-04-23T04:47:28.585Z,108.00
2018-04-23T04:48:28.124Z,116.00
2018-04-23T04:49:28.291Z,116.00
2018-04-23T04:50:28.458Z,120.00
2018-04-23T04:53:11.076Z,136.00
2018-04-23T04:54:11.245Z,144.00
2018-04-23T04:55:11.417Z,152.00
2018-04-23T04:56:19.533Z,152.00
2018-04-23T04:57:11.691Z,156.00
2018-04-23T04:58:11.856Z,160.00
2018-04-23T04:59:12.019Z,168.00
2018-04-23T05:00:19.633Z,184.00
2018-04-23T05:01:12.287Z,200.00
2018-04-23T05:02:12.456Z,216.00
2018-04-23T05:03:12.692Z,228.00
2018-04-23T05:04:12.736Z,232.00
2018-04-23T05:05:12.900Z,228.00
2018-04-23T05:06:13.065Z,204.00
2018-04-23T05:07:13.227Z,180.00
2018-04-23T05:08:13.397Z,168.00
2018-04-23T05:09:13.565Z,164.00
2018-04-23T05:10:14.714Z,156.00
2018-04-23T05:12:55.986Z,172.00
2018-04-23T05:13:56.154Z,184.00
2018-04-23T05:14:56.310Z,208.00
2018-04-23T05:15:56.483Z,228.00
2018-04-23T05:16:56.657Z,248.00
2018-04-23T05:17:56.824Z,252.00
2018-04-23T05:18:56.989Z,260.00
2018-04-23T05:19:57.154Z,268.00
2018-04-23T05:20:57.332Z,264.00
2018-04-23T05:21:57.497Z,264.00
2018-04-23T05:22:57.745Z,264.00
2018-04-23T05:23:57.857Z,268.00
2018-04-23T05:24:58.018Z,272.00
2018-04-23T05:25:58.179Z,264.00
2018-04-23T05:26:58.347Z,260.00
2018-04-23T05:29:38.691Z,268.00
2018-04-23T05:30:30.739Z,276.00
2018-04-23T05:31:30.924Z,280.00
2018-04-23T05:32:31.074Z,284.00
2018-04-23T05:33:31.375Z,292.00
2018-04-23T05:34:31.424Z,300.00
2018-04-23T05:35:31.596Z,304.00
2018-04-23T05:36:31.758Z,288.00
2018-04-23T05:37:31.929Z,264.00
2018-04-23T05:38:32.092Z,240.00
2018-04-23T05:39:32.259Z,220.00
2018-04-23T05:42:04.542Z,188.00
2018-04-23T05:43:04.763Z,184.00
2018-04-23T05:44:04.882Z,192.00
2018-04-23T05:45:05.051Z,196.00
2018-04-23T05:46:05.218Z,200.00
2018-04-23T05:47:05.386Z,208.00
2018-04-23T05:48:05.571Z,208.00
2018-04-23T05:49:05.748Z,220.00
2018-04-23T05:50:05.909Z,228.00
2018-04-23T05:51:06.072Z,240.00
2018-04-23T05:53:38.646Z,260.00
2018-04-23T05:54:38.815Z,264.00
2018-04-23T05:55:38.987Z,268.00
2018-04-23T05:56:39.151Z,272.00
2018-04-23T05:57:39.883Z,272.00
2018-04-23T05:58:39.460Z,268.00
2018-04-23T05:59:47.042Z,264.00
2018-04-23T06:00:39.719Z,260.00
2018-04-23T06:01:39.875Z,252.00
2018-04-23T06:02:40.042Z,240.00
2018-04-23T06:03:40.215Z,232.00
2018-04-23T06:04:40.372Z,228.00
2018-04-23T06:05:40.561Z,224.00
2018-04-23T06:06:40.721Z,224.00
2018-04-23T06:07:40.882Z,216.00
2018-04-23T06:08:41.048Z,208.00
2018-04-23T06:09:42.899Z,208.00
2018-04-23T06:10:41.313Z,196.00
2018-04-23T06:11:41.479Z,200.00
2018-04-23T06:12:41.647Z,204.00
2018-04-23T06:13:41.821Z,208.00
2018-04-23T06:16:24.100Z,188.00
2018-04-23T06:17:24.268Z,188.00
2018-04-23T06:18:24.449Z,180.00
2018-04-23T06:19:24.629Z,180.00
2018-04-23T06:20:24.795Z,176.00
2018-04-23T06:21:24.957Z,184.00
2018-04-23T06:22:25.131Z,184.00
2018-04-23T06:23:25.327Z,188.00
2018-04-23T06:24:25.468Z,184.00
2018-04-23T06:25:25.636Z,188.00
2018-04-23T06:26:25.803Z,188.00
2018-04-23T06:27:25.967Z,188.00
2018-04-23T06:28:26.134Z,196.00
2018-04-23T06:29:26.299Z,200.00
2018-04-23T06:30:26.473Z,204.00
2018-04-23T06:32:58.764Z,208.00
2018-04-23T06:33:58.901Z,212.00
2018-04-23T06:34:59.067Z,216.00
2018-04-23T06:35:59.238Z,220.00
2018-04-23T06:36:59.411Z,216.00
2018-04-23T06:37:59.579Z,220.00
2018-04-23T06:38:59.747Z,228.00
2018-04-23T06:39:59.919Z,236.00
2018-04-23T06:41:00.082Z,252.00
2018-04-23T06:42:00.253Z,272.00
2018-04-23T06:43:00.434Z,292.00
2018-04-23T06:44:00.703Z,312.00
2018-04-23T06:45:00.764Z,324.00
2018-04-23T06:46:00.925Z,348.00
2018-04-23T06:47:01.102Z,380.00
2018-04-23T06:48:09.223Z,412.00
2018-04-23T06:49:01.379Z,432.00
2018-04-23T06:50:01.548Z,484.00
2018-04-23T06:51:01.718Z,532.00
2018-04-23T06:52:09.070Z,584.00
2018-04-23T06:53:02.106Z,620.00
2018-04-23T06:54:02.270Z,648.00
2018-04-23T06:55:02.441Z,684.00
2018-04-23T06:56:02.608Z,712.00
2018-04-23T06:57:02.773Z,768.00
2018-04-23T06:58:02.942Z,828.00
2018-04-23T06:59:03.129Z,860.00
2018-04-23T07:00:03.278Z,920.00
2018-04-23T07:01:03.447Z,964.00
2018-04-23T07:02:03.617Z,996.00
2018-04-23T07:03:03.781Z,1000.00
2018-04-23T07:04:03.949Z,1004.00
2018-04-23T07:05:04.149Z,996.00
2018-04-23T07:06:04.283Z,988.00
2018-04-23T07:08:36.858Z,1020.00
2018-04-23T07:09:37.026Z,1048.00
2018-04-23T07:10:37.194Z,1072.00
2018-04-23T07:11:37.360Z,1100.00
2018-04-23T07:12:37.535Z,1136.00
2018-04-23T07:13:37.697Z,1192.00
2018-04-23T07:14:37.858Z,1252.00
2018-04-23T07:15:45.242Z,1304.00
2018-04-23T07:16:38.170Z,1388.00
2018-04-23T07:17:39.114Z,1488.00
2018-04-23T07:18:38.527Z,1568.00
2018-04-23T07:19:46.179Z,1616.00
2018-04-23T07:20:40.615Z,1676.00
2018-04-23T07:21:39.034Z,1776.00
2018-04-23T07:22:39.201Z,1884.00
2018-04-23T07:23:39.369Z,2036.00
2018-04-23T07:24:39.537Z,2236.00
2018-04-23T07:25:39.708Z,2852.00
2018-04-23T07:26:39.870Z,3880.00
2018-04-23T07:27:40.625Z,3500.00
2018-04-23T07:28:47.640Z,3812.00
2018-04-23T07:29:40.304Z,3356.00
2018-04-23T07:30:40.473Z,3344.00
2018-04-23T07:31:40.640Z,3628.00
2018-04-23T07:32:40.813Z,3804.00
2018-04-23T07:33:40.988Z,3784.00
2018-04-23T07:34:41.160Z,3536.00
2018-04-23T07:35:41.326Z,3188.00
2018-04-23T07:36:41.492Z,2832.00
2018-04-23T07:37:41.661Z,2588.00
2018-04-23T07:38:41.825Z,2592.00
2018-04-23T07:41:24.117Z,2652.00
2018-04-23T07:42:24.290Z,2544.00
2018-04-23T07:43:24.457Z,2408.00
2018-04-23T07:44:24.627Z,2280.00
2018-04-23T07:45:24.794Z,2100.00
2018-04-23T07:46:24.965Z,1964.00
2018-04-23T07:47:25.628Z,1832.00
2018-04-23T07:48:25.296Z,1760.00
2018-04-23T07:49:25.506Z,1696.00
2018-04-23T07:50:25.621Z,1652.00
2018-04-23T07:51:25.783Z,1644.00
2018-04-23T07:52:25.955Z,1680.00
2018-04-23T07:53:26.154Z,1724.00
2018-04-23T07:54:26.297Z,1712.00
2018-04-23T07:55:26.465Z,1692.00
2018-04-23T07:58:08.779Z,1740.00
2018-04-23T07:59:18.456Z,1736.00
2018-04-23T08:00:09.115Z,1780.00
2018-04-23T08:01:09.793Z,1884.00
2018-04-23T08:02:09.463Z,2016.00
2018-04-23T08:03:09.628Z,2036.00
2018-04-23T08:04:09.794Z,2012.00
2018-04-23T08:05:09.962Z,2044.00
2018-04-23T08:06:10.127Z,2028.00
2018-04-23T08:07:10.297Z,1976.00
2018-04-23T08:08:10.464Z,1936.00
2018-04-23T08:09:11.297Z,1960.00
2018-04-23T08:10:10.846Z,1904.00
2018-04-23T08:11:11.010Z,1872.00
2018-04-23T08:12:11.183Z,1852.00
2018-04-23T08:13:11.344Z,1844.00
2018-04-23T08:14:11.516Z,1780.00
2018-04-23T08:16:54.092Z,1532.00
2018-04-23T08:17:54.257Z,1448.00
2018-04-23T08:18:54.425Z,1396.00
2018-04-23T08:19:54.596Z,1364.00
2018-04-23T08:20:55.321Z,1332.00
2018-04-23T08:21:55.001Z,1300.00
2018-04-23T08:22:55.170Z,1244.00
2018-04-23T08:23:55.587Z,1204.00
2018-04-23T08:25:02.670Z,1168.00
2018-04-23T08:25:55.715Z,1152.00
2018-04-23T08:26:55.874Z,1132.00
2018-04-23T08:27:56.041Z,1116.00
2018-04-23T08:29:03.417Z,1112.00
2018-04-23T08:29:56.458Z,1076.00
2018-04-23T08:30:56.631Z,1064.00
2018-04-23T08:31:56.850Z,1080.00
2018-04-23T08:32:56.958Z,1072.00
2018-04-23T08:33:57.149Z,1068.00
2018-04-23T08:34:57.315Z,1084.00
2018-04-23T08:35:57.484Z,1128.00
2018-04-23T08:36:57.658Z,1208.00
2018-04-23T08:37:57.816Z,1300.00
2018-04-23T08:38:58.004Z,1428.00
2018-04-23T08:39:58.173Z,1536.00
2018-04-23T08:40:58.368Z,1640.00
2018-04-23T08:41:58.523Z,1720.00
2018-04-23T08:42:58.712Z,1820.00
2018-04-23T08:45:31.274Z,1928.00
2018-04-23T08:46:31.444Z,1960.00
2018-04-23T08:47:31.614Z,2016.00
2018-04-23T08:48:31.785Z,2164.00
2018-04-23T08:49:31.956Z,2212.00
2018-04-23T08:50:32.125Z,2272.00
2018-04-23T08:51:32.294Z,2280.00
2018-04-23T08:52:32.463Z,2212.00
2018-04-23T08:53:32.638Z,2156.00
2018-04-23T08:54:32.805Z,2128.00
2018-04-23T08:55:32.995Z,2112.00
2018-04-23T08:56:33.143Z,2132.00
2018-04-23T08:57:33.528Z,2100.00
2018-04-23T08:58:33.534Z,2080.00
2018-04-23T08:59:33.702Z,2012.00
2018-04-23T09:02:06.021Z,1828.00
2018-04-23T09:03:06.183Z,1844.00
2018-04-23T09:04:06.482Z,1836.00
2018-04-23T09:05:06.560Z,1960.00
2018-04-23T09:06:06.805Z,1884.00
2018-04-23T09:07:06.876Z,1896.00
2018-04-23T09:08:07.051Z,1916.00
2018-04-23T09:09:07.217Z,2032.00
2018-04-23T09:10:07.385Z,2260.00
2018-04-23T09:11:07.556Z,2440.00
2018-04-23T09:12:07.724Z,2952.00
2018-04-23T09:13:15.846Z,3648.00
2018-04-23T09:14:08.007Z,3072.00
2018-04-23T09:15:08.177Z,3080.00
2018-04-23T09:16:08.353Z,2776.00
2018-04-23T09:18:40.913Z,2756.00
2018-04-23T09:19:41.229Z,2648.00
2018-04-23T09:20:41.235Z,2692.00
2018-04-23T09:21:41.407Z,2808.00
2018-04-23T09:22:41.576Z,3136.00
2018-04-23T09:23:43.643Z,3400.00
2018-04-23T09:24:41.933Z,3564.00
2018-04-23T09:25:42.106Z,3564.00
2018-04-23T09:26:42.263Z,3556.00
2018-04-23T09:27:42.471Z,3632.00
2018-04-23T09:28:42.638Z,3728.00
2018-04-23T09:29:42.807Z,3756.00
2018-04-23T09:30:43.660Z,3776.00
2018-04-23T09:31:43.201Z,3700.00
2018-04-23T09:32:43.370Z,3568.00
2018-04-23T09:35:15.950Z,3736.00
2018-04-23T09:36:15.844Z,3940.00
2018-04-23T09:37:23.499Z,4616.00
2018-04-23T09:38:24.134Z,6292.00
2018-04-23T09:39:16.455Z,6420.00
2018-04-23T09:40:18.231Z,6956.00
2018-04-23T09:41:16.781Z,7336.00
2018-04-23T09:42:16.953Z,6616.00
2018-04-23T09:43:17.123Z,10244.00
2018-04-23T09:44:17.423Z,9452.00
2018-04-23T09:45:17.523Z,7068.00
2018-04-23T09:46:17.702Z,6380.00
2018-04-23T09:47:18.594Z,6092.00
2018-04-23T09:48:26.574Z,6224.00
2018-04-23T09:49:18.577Z,5520.00
2018-04-23T09:50:18.395Z,4328.00
2018-04-23T09:51:18.556Z,4216.00
2018-04-23T09:52:18.715Z,5532.00
2018-04-23T09:53:18.883Z,6244.00
2018-04-23T09:54:19.056Z,6376.00
2018-04-23T09:55:19.222Z,5444.00
2018-04-23T09:56:19.397Z,5024.00
2018-04-23T09:57:19.561Z,5656.00
2018-04-23T09:58:19.737Z,3860.00
2018-04-23T09:59:27.588Z,3256.00
2018-04-23T10:00:20.005Z,3948.00
2018-04-23T10:01:20.175Z,5588.00
2018-04-23T10:02:20.345Z,5576.00
2018-04-23T10:03:20.516Z,3928.00
2018-04-23T10:04:20.684Z,6260.00
2018-04-23T10:05:20.854Z,6164.00
2018-04-23T10:06:21.022Z,3912.00
2018-04-23T10:07:21.194Z,3848.00
2018-04-23T10:08:21.372Z,4640.00
2018-04-23T10:09:21.522Z,5956.00
2018-04-23T10:10:23.275Z,5784.00
2018-04-23T10:11:21.820Z,4644.00
2018-04-23T10:12:21.990Z,3748.00
2018-04-23T10:13:22.160Z,3400.00
2018-04-23T10:16:04.729Z,5472.00
2018-04-23T10:17:12.267Z,5780.00
2018-04-23T10:18:05.045Z,5088.00
2018-04-23T10:19:05.220Z,3244.00
2018-04-23T10:20:05.397Z,3164.00
2018-04-23T10:21:05.617Z,4088.00
2018-04-23T10:22:05.797Z,4016.00
2018-04-23T10:23:05.957Z,3168.00
2018-04-23T10:24:06.124Z,6516.00
2018-04-23T10:25:06.292Z,5072.00
2018-04-23T10:26:06.480Z,3388.00
2018-04-23T10:27:06.649Z,4028.00
2018-04-23T10:28:06.847Z,4392.00
2018-04-23T10:29:14.674Z,6124.00
2018-04-23T10:30:07.216Z,5788.00
2018-04-23T10:31:07.390Z,7604.00
2018-04-23T10:32:07.562Z,3736.00
2018-04-23T10:33:07.729Z,3516.00
2018-04-23T10:34:07.900Z,3644.00
2018-04-23T10:35:08.070Z,3780.00
2018-04-23T10:36:08.240Z,3556.00
2018-04-23T10:37:08.429Z,3188.00
2018-04-23T10:38:08.601Z,2924.00
2018-04-23T10:39:09.437Z,2880.00
2018-04-23T10:41:51.120Z,4524.00
2018-04-23T10:42:59.789Z,2968.00
2018-04-23T10:43:51.480Z,5380.00
2018-04-23T10:44:53.239Z,2740.00
2018-04-23T10:45:51.794Z,2616.00
2018-04-23T10:46:51.963Z,2760.00
2018-04-23T10:47:52.134Z,5168.00
2018-04-23T10:48:52.304Z,5108.00
2018-04-23T10:49:52.481Z,5028.00
2018-04-23T10:51:00.623Z,3040.00
2018-04-23T10:51:52.778Z,2816.00
2018-04-23T10:52:52.959Z,2620.00
2018-04-23T10:53:53.115Z,3508.00
2018-04-23T10:54:54.174Z,3516.00
2018-04-23T10:55:53.414Z,2464.00
2018-04-23T10:56:53.585Z,2508.00
2018-04-23T10:57:53.750Z,2480.00
2018-04-23T10:58:53.929Z,4600.00
2018-04-23T10:59:54.177Z,4576.00
2018-04-23T11:00:54.211Z,4416.00
2018-04-23T11:01:54.427Z,3760.00
2018-04-23T11:02:54.904Z,4496.00
2018-04-23T11:03:54.693Z,3952.00
2018-04-23T11:05:02.533Z,3908.00
2018-04-23T11:05:55.057Z,2720.00
2018-04-23T11:06:55.240Z,2444.00
2018-04-23T11:07:55.412Z,4308.00
2018-04-23T11:08:55.588Z,4352.00
2018-04-23T11:09:55.757Z,4068.00
2018-04-23T11:10:56.059Z,3880.00
2018-04-23T11:11:56.073Z,2484.00
2018-04-23T11:13:04.676Z,3312.00
2018-04-23T11:13:56.525Z,3376.00
2018-04-23T11:14:56.580Z,2780.00
2018-04-23T11:15:56.753Z,1580.00
2018-04-23T11:16:57.045Z,1628.00
2018-04-23T11:17:57.149Z,3580.00
2018-04-23T11:18:57.336Z,1980.00
2018-04-23T11:19:57.895Z,3868.00
2018-04-23T11:20:58.101Z,3832.00
2018-04-23T11:21:58.392Z,3748.00
2018-04-23T11:22:58.101Z,2040.00
2018-04-23T11:25:40.802Z,3520.00
2018-04-23T11:26:40.852Z,3364.00
2018-04-23T11:27:48.565Z,1588.00
2018-04-23T11:28:41.248Z,1676.00
2018-04-23T11:29:41.423Z,3292.00
2018-04-23T11:30:42.399Z,3892.00
2018-04-23T11:31:41.865Z,3876.00
2018-04-23T11:32:42.014Z,3352.00
2018-04-23T11:33:42.197Z,1744.00
2018-04-23T11:34:50.018Z,1532.00
2018-04-23T11:35:42.559Z,1500.00
2018-04-23T11:36:42.724Z,3028.00
2018-04-23T11:37:42.891Z,3204.00
2018-04-23T11:38:43.117Z,3212.00
2018-04-23T11:39:43.253Z,3240.00
2018-04-23T11:40:43.410Z,3296.00
2018-04-23T11:41:43.583Z,3496.00
2018-04-23T11:42:43.745Z,3740.00
2018-04-23T11:43:43.923Z,3868.00
2018-04-23T11:44:44.093Z,3736.00
2018-04-23T11:45:44.264Z,3680.00
2018-04-23T11:46:44.437Z,3608.00
2018-04-23T11:47:44.609Z,3660.00
2018-04-23T11:50:17.495Z,2516.00
2018-04-23T11:51:19.420Z,3656.00
2018-04-23T11:52:17.842Z,3448.00
2018-04-23T11:53:18.016Z,2856.00
2018-04-23T11:54:18.187Z,2364.00
2018-04-23T11:55:25.519Z,2152.00
2018-04-23T11:56:18.563Z,2096.00
2018-04-23T11:57:18.748Z,2092.00
2018-04-23T11:58:18.913Z,2060.00
2018-04-23T11:59:19.124Z,1996.00
2018-04-23T12:00:19.262Z,1984.00
2018-04-23T12:01:19.435Z,2188.00
2018-04-23T12:02:19.802Z,2232.00
2018-04-23T12:03:19.782Z,3904.00
2018-04-23T12:04:19.934Z,3920.00
2018-04-23T12:05:20.948Z,3832.00
2018-04-23T12:06:20.243Z,2996.00
2018-04-23T12:07:20.412Z,2568.00
2018-04-23T12:08:20.587Z,2444.00
2018-04-23T12:09:23.456Z,3820.00
2018-04-23T12:12:02.971Z,2312.00
2018-04-23T12:13:03.142Z,2084.00
2018-04-23T12:14:10.761Z,1936.00
2018-04-23T12:15:03.425Z,1972.00
2018-04-23T12:16:03.604Z,1952.00
2018-04-23T12:17:04.519Z,1952.00
2018-04-23T12:18:11.400Z,1952.00
2018-04-23T12:19:04.303Z,1952.00
2018-04-23T12:20:04.249Z,1896.00
2018-04-23T12:21:04.419Z,1796.00
2018-04-23T12:22:04.593Z,1764.00
2018-04-23T12:23:04.764Z,1728.00
2018-04-23T12:24:04.937Z,1864.00
2018-04-23T12:25:05.110Z,1876.00
2018-04-23T12:26:07.028Z,2360.00
2018-04-23T12:27:05.439Z,2160.00
2018-04-23T12:28:05.608Z,3608.00
2018-04-23T12:29:05.799Z,2232.00
2018-04-23T12:30:05.958Z,1872.00
2018-04-23T12:31:06.150Z,1784.00
2018-04-23T12:32:06.333Z,2660.00
2018-04-23T12:34:38.922Z,3540.00
2018-04-23T12:35:39.099Z,3488.00
2018-04-23T12:36:39.301Z,3460.00
2018-04-23T12:37:39.437Z,3516.00
2018-04-23T12:38:39.597Z,3604.00
2018-04-23T12:39:39.807Z,3476.00
2018-04-23T12:40:39.962Z,3364.00
2018-04-23T12:41:40.129Z,3336.00
2018-04-23T12:42:40.298Z,3256.00
2018-04-23T12:43:40.475Z,3316.00
2018-04-23T12:44:48.669Z,3184.00
2018-04-23T12:45:40.799Z,3124.00
2018-04-23T12:46:40.954Z,3324.00
2018-04-23T12:47:41.125Z,2172.00
2018-04-23T12:48:41.299Z,3600.00
2018-04-23T12:49:41.470Z,3556.00
2018-04-23T12:50:41.644Z,3396.00
2018-04-23T12:51:41.811Z,3404.00
2018-04-23T12:52:41.977Z,3560.00
2018-04-23T12:53:42.176Z,3500.00
2018-04-23T12:54:43.085Z,3564.00
2018-04-23T12:55:42.537Z,3552.00
2018-04-23T12:56:42.711Z,3508.00
2018-04-23T12:57:42.969Z,3424.00
2018-04-23T12:58:43.015Z,3432.00
2018-04-23T13:01:15.339Z,3524.00
2018-04-23T13:02:15.385Z,3544.00
2018-04-23T13:03:15.559Z,3488.00
2018-04-23T13:04:15.726Z,3548.00
2018-04-23T13:05:15.895Z,3460.00
2018-04-23T13:06:16.075Z,3452.00
2018-04-23T13:07:23.909Z,3364.00
2018-04-23T13:08:16.457Z,3268.00
2018-04-23T13:09:16.650Z,3180.00
2018-04-23T13:10:16.823Z,3248.00
2018-04-23T13:11:16.990Z,3180.00
2018-04-23T13:12:19.770Z,3176.00
2018-04-23T13:13:17.375Z,3152.00
2018-04-23T13:14:17.580Z,3036.00
2018-04-23T13:15:17.810Z,3104.00
2018-04-23T13:16:17.911Z,3092.00
2018-04-23T13:17:18.128Z,3100.00
2018-04-23T13:19:51.696Z,3108.00
2018-04-23T13:20:51.955Z,3104.00
2018-04-23T13:21:52.063Z,3132.00
2018-04-23T13:22:52.308Z,3116.00
2018-04-23T13:23:52.541Z,3120.00
2018-04-23T13:24:52.569Z,3076.00
2018-04-23T13:25:52.740Z,2948.00
2018-04-23T13:26:52.911Z,2944.00
2018-04-23T13:27:53.082Z,2964.00
2018-04-23T13:28:53.241Z,2792.00
2018-04-23T13:31:25.866Z,2776.00
2018-04-23T13:32:26.051Z,2740.00
2018-04-23T13:33:26.220Z,2204.00
2018-04-23T13:34:26.392Z,2764.00
2018-04-23T13:35:26.562Z,2772.00
2018-04-23T13:36:26.734Z,2944.00
2018-04-23T13:37:27.588Z,2780.00
2018-04-23T13:38:27.135Z,2888.00
2018-04-23T13:39:28.092Z,3044.00
2018-04-23T13:40:27.513Z,3076.00
2018-04-23T13:42:59.782Z,3192.00
2018-04-23T13:43:59.963Z,3296.00